Time;durP1;ratioP1;P1;durP2;ratioP2;P2;SDS_P1;SDS_P2;PMS_P1;PMS_P2;Temp;Humidity;BMP_temperature;BMP_pressure;BME280_temperature;BME280_humidity;BME280_pressure;Samples;Min_cycle;Max_cycle;Signal;HPM_P1;HPM_P2
2022/09/24 04:00:36;;;;;;;15.50;14.00;;;12.50;99.90;;;;;;5884938;23;20533;-64
2022/09/24 04:03:03;;;;;;;14.70;13.37;;;12.40;99.90;;;;;;4976590;28;20443;-63
2022/09/24 04:05:30;;;;;;;15.87;14.67;;;12.40;99.90;;;;;;4975493;28;20454;-63
2022/09/24 04:07:57;;;;;;;15.90;14.40;;;12.40;99.90;;;;;;4975546;28;20451;-64
2022/09/24 04:10:24;;;;;;;16.37;15.07;;;12.30;99.90;;;;;;4975230;28;20977;-63
2022/09/24 04:12:51;;;;;;;16.40;14.90;;;12.30;99.90;;;;;;4975756;28;21000;-64
2022/09/24 04:15:17;;;;;;;16.13;14.77;;;12.30;99.90;;;;;;4975277;28;20450;-64
2022/09/24 04:17:50;;;;;;;15.53;14.33;;;12.20;99.90;;;;;;4975402;28;20475;-63
2022/09/24 04:20:20;;;;;;;16.00;14.40;;;12.20;99.90;;;;;;4975208;28;20527;-63
2022/09/24 04:22:48;;;;;;;15.60;14.30;;;12.20;99.90;;;;;;4976255;28;20454;-63
2022/09/24 04:25:14;;;;;;;15.63;14.33;;;12.20;99.90;;;;;;4975209;28;20547;-63
2022/09/24 04:27:41;;;;;;;14.37;13.27;;;12.20;99.90;;;;;;4975210;28;20454;-64
2022/09/24 04:30:09;;;;;;;15.33;14.03;;;12.30;99.90;;;;;;4975674;28;20509;-64
2022/09/24 04:32:36;;;;;;;14.60;13.20;;;12.30;99.90;;;;;;4975217;28;20541;-64
2022/09/24 04:35:05;;;;;;;14.40;13.30;;;12.40;99.90;;;;;;4975062;28;20537;-63
2022/09/24 04:37:31;;;;;;;15.93;14.17;;;12.30;99.90;;;;;;4974982;28;20479;-64
2022/09/24 04:39:58;;;;;;;14.30;13.30;;;12.40;99.90;;;;;;4975124;28;20454;-62
2022/09/24 04:42:25;;;;;;;15.13;13.70;;;12.40;99.90;;;;;;4974905;28;20884;-63
2022/09/24 04:44:52;;;;;;;13.97;12.77;;;12.50;99.90;;;;;;4974981;28;20454;-63
2022/09/24 04:47:18;;;;;;;14.30;13.20;;;12.50;99.90;;;;;;4975682;28;20485;-63
2022/09/24 04:49:45;;;;;;;14.23;12.87;;;12.50;99.90;;;;;;4975052;28;20455;-63
2022/09/24 04:52:14;;;;;;;15.13;13.73;;;12.40;99.90;;;;;;4974660;28;20663;-63
2022/09/24 04:54:43;;;;;;;14.80;13.80;;;12.40;99.90;;;;;;4975398;28;20454;-63
2022/09/24 04:57:10;;;;;;;14.23;13.13;;;12.30;99.90;;;;;;4975407;28;20488;-63
2022/09/24 04:59:37;;;;;;;15.17;13.50;;;12.30;99.90;;;;;;4978476;28;20505;-63
2022/09/24 05:02:06;;;;;;;13.67;12.57;;;12.30;99.90;;;;;;4978078;28;20479;-63
2022/09/24 05:04:33;;;;;;;13.27;12.13;;;12.40;99.90;;;;;;4978441;28;20454;-63
2022/09/24 05:06:59;;;;;;;12.47;11.57;;;12.50;99.90;;;;;;4978228;28;20458;-63
2022/09/24 05:09:29;;;;;;;12.40;11.30;;;12.50;99.90;;;;;;4978286;28;21008;-63
2022/09/24 05:11:55;;;;;;;13.53;11.50;;;12.60;99.90;;;;;;4978552;28;20474;-63
2022/09/24 05:14:22;;;;;;;12.57;11.57;;;12.70;99.90;;;;;;4978286;28;20454;-63
2022/09/24 05:16:49;;;;;;;13.83;12.50;;;12.70;99.90;;;;;;4979953;28;20483;-63
2022/09/24 05:19:15;;;;;;;15.53;13.40;;;12.70;99.90;;;;;;4987415;28;20462;-63
2022/09/24 05:21:42;;;;;;;14.33;13.03;;;12.70;99.90;;;;;;4986439;28;20541;-63
2022/09/24 05:24:09;;;;;;;14.03;12.70;;;12.70;99.90;;;;;;4981489;28;20451;-64
2022/09/24 05:29:21;;;;;;;14.93;13.73;;;12.80;99.90;;;;;;4979712;28;20414;-64
2022/09/24 05:31:48;;;;;;;15.60;14.10;;;12.80;99.90;;;;;;4979380;28;20478;-64
2022/09/24 05:34:15;;;;;;;14.07;12.90;;;12.80;99.90;;;;;;4979528;28;20524;-63
2022/09/24 05:36:42;;;;;;;14.27;13.13;;;12.70;99.90;;;;;;4979235;28;20454;-63
2022/09/24 05:39:10;;;;;;;14.50;13.20;;;12.70;99.90;;;;;;4978779;28;21068;-64
2022/09/24 05:41:38;;;;;;;14.67;13.30;;;12.70;99.90;;;;;;4978510;28;20478;-63
2022/09/24 05:44:06;;;;;;;14.67;13.50;;;12.80;99.90;;;;;;4978557;28;20465;-64
2022/09/24 05:46:33;;;;;;;14.33;13.13;;;12.80;99.90;;;;;;4978251;28;20593;-63
2022/09/24 05:48:59;;;;;;;14.07;12.97;;;12.80;99.90;;;;;;4977528;28;20810;-64
2022/09/24 05:51:26;;;;;;;14.93;13.60;;;12.80;99.90;;;;;;4977530;28;20529;-63
2022/09/24 05:53:53;;;;;;;13.80;12.70;;;12.70;99.90;;;;;;4977805;28;20458;-64
2022/09/24 05:56:19;;;;;;;13.67;12.47;;;12.80;99.90;;;;;;4978106;28;20505;-64
2022/09/24 05:58:50;;;;;;;15.03;13.83;;;12.80;99.90;;;;;;4978219;28;20475;-64
2022/09/24 06:01:16;;;;;;;14.80;13.57;;;12.80;99.90;;;;;;4977688;28;20490;-63
2022/09/24 06:03:43;;;;;;;14.37;12.90;;;12.90;99.90;;;;;;4977821;28;20459;-63
2022/09/24 06:06:10;;;;;;;14.90;13.70;;;12.90;99.90;;;;;;4978643;28;20454;-63
2022/09/24 06:08:36;;;;;;;13.90;12.80;;;12.90;99.90;;;;;;4976323;28;20454;-63
2022/09/24 06:11:05;;;;;;;15.43;13.33;;;12.90;99.90;;;;;;4977197;28;20553;-63
2022/09/24 06:13:33;;;;;;;13.93;12.63;;;13.00;99.90;;;;;;4977200;28;20459;-64
2022/09/24 06:16:02;;;;;;;13.30;12.13;;;13.00;99.90;;;;;;4977077;28;20459;-63
2022/09/24 06:18:30;;;;;;;13.90;12.80;;;13.20;99.90;;;;;;4976809;28;20483;-63
2022/09/24 06:21:02;;;;;;;14.57;13.33;;;13.20;99.90;;;;;;4976953;28;20569;-63
2022/09/24 06:23:29;;;;;;;14.70;13.27;;;13.10;99.90;;;;;;4977198;28;20446;-63
2022/09/24 06:25:56;;;;;;;16.00;14.70;;;13.10;99.90;;;;;;4977284;28;21004;-63
2022/09/24 06:28:24;;;;;;;15.43;14.10;;;13.10;99.90;;;;;;4977378;28;20454;-63
2022/09/24 06:30:51;;;;;;;15.07;13.90;;;13.20;99.90;;;;;;4977014;28;20471;-63
2022/09/24 06:33:19;;;;;;;14.47;13.07;;;13.30;99.90;;;;;;4977765;28;20462;-63
2022/09/24 06:35:47;;;;;;;14.10;12.80;;;13.30;99.90;;;;;;4977196;28;20507;-64
2022/09/24 06:38:15;;;;;;;14.30;12.90;;;13.40;99.90;;;;;;4977169;28;20481;-64
2022/09/24 06:40:45;;;;;;;15.03;13.63;;;13.50;99.90;;;;;;4977228;28;20483;-64
2022/09/24 06:43:13;;;;;;;15.07;13.70;;;13.60;99.90;;;;;;4976956;28;20495;-64
2022/09/24 06:45:40;;;;;;;15.47;14.17;;;13.70;99.90;;;;;;4976529;28;20454;-64
2022/09/24 06:48:07;;;;;;;14.60;13.40;;;13.70;99.90;;;;;;4976480;28;20542;-64
2022/09/24 06:50:38;;;;;;;15.80;14.60;;;13.80;99.90;;;;;;4976680;28;20474;-63
2022/09/24 06:53:06;;;;;;;14.80;13.67;;;13.80;99.90;;;;;;4976459;28;20497;-64
2022/09/24 06:55:34;;;;;;;15.47;14.10;;;13.90;99.90;;;;;;4976560;28;20466;-64
2022/09/24 06:58:03;;;;;;;15.43;14.23;;;13.90;99.90;;;;;;4977416;28;20521;-63
2022/09/24 07:00:30;;;;;;;15.93;14.53;;;14.00;99.90;;;;;;4976163;28;20455;-64
2022/09/24 07:02:56;;;;;;;16.97;15.30;;;14.10;99.90;;;;;;4976737;28;20439;-64
2022/09/24 07:05:23;;;;;;;15.43;13.90;;;14.00;99.90;;;;;;4976194;28;20521;-64
2022/09/24 07:07:51;;;;;;;15.87;14.40;;;14.10;99.90;;;;;;4976389;28;20465;-64
2022/09/24 07:10:18;;;;;;;15.80;14.30;;;14.20;99.90;;;;;;4977840;28;20481;-64
2022/09/24 07:12:45;;;;;;;15.43;14.00;;;14.30;99.90;;;;;;4978025;28;20470;-64
2022/09/24 07:15:11;;;;;;;16.00;14.40;;;14.40;99.90;;;;;;4977182;28;20825;-65
2022/09/24 07:17:38;;;;;;;15.30;14.20;;;14.40;99.90;;;;;;4977749;28;20459;-64
2022/09/24 07:20:06;;;;;;;16.07;14.77;;;14.40;99.90;;;;;;4977448;28;20510;-64
2022/09/24 07:22:36;;;;;;;16.60;14.10;;;14.50;99.90;;;;;;4977084;28;21056;-64
2022/09/24 07:25:07;;;;;;;15.73;14.10;;;14.40;99.90;;;;;;4977406;28;20928;-65
2022/09/24 07:27:33;;;;;;;16.23;14.77;;;14.40;99.90;;;;;;4976449;28;20877;-65
2022/09/24 07:30:00;;;;;;;16.00;14.60;;;14.30;99.90;;;;;;4975537;28;20945;-63
2022/09/24 07:32:27;;;;;;;15.30;14.00;;;14.30;99.90;;;;;;4976196;28;20557;-64
2022/09/24 07:34:54;;;;;;;15.03;13.67;;;14.30;99.90;;;;;;4976018;28;20469;-64
2022/09/24 07:37:20;;;;;;;15.80;14.43;;;14.40;99.90;;;;;;4975841;28;20483;-64
2022/09/24 07:39:47;;;;;;;15.03;13.60;;;14.50;99.90;;;;;;4975984;28;20474;-63
2022/09/24 07:42:15;;;;;;;15.27;13.83;;;14.50;99.90;;;;;;4977254;28;20474;-64
2022/09/24 07:44:42;;;;;;;15.57;14.10;;;14.60;99.90;;;;;;4975810;28;20533;-63
2022/09/24 07:47:09;;;;;;;14.17;13.07;;;14.70;99.90;;;;;;4975417;28;20980;-63
2022/09/24 07:49:37;;;;;;;17.57;15.43;;;14.80;99.90;;;;;;4975390;28;20451;-64
2022/09/24 07:52:04;;;;;;;16.57;15.17;;;14.90;99.90;;;;;;4975823;28;20510;-65
2022/09/24 07:54:31;;;;;;;16.03;14.83;;;14.90;99.90;;;;;;4978581;28;20485;-64
2022/09/24 07:56:59;;;;;;;17.20;15.70;;;14.90;99.90;;;;;;4989282;28;20454;-64
2022/09/24 07:59:27;;;;;;;15.77;14.27;;;15.00;99.90;;;;;;4987619;28;20481;-65
2022/09/24 08:01:53;;;;;;;16.17;14.67;;;15.10;99.90;;;;;;4980608;28;20839;-64
2022/09/24 08:04:20;;;;;;;15.20;13.90;;;15.10;99.90;;;;;;4979713;28;20466;-64
2022/09/24 08:06:47;;;;;;;14.63;13.43;;;15.20;99.90;;;;;;4980003;28;20451;-64
2022/09/24 08:09:15;;;;;;;15.47;14.17;;;15.20;99.90;;;;;;4981597;28;20446;-64
2022/09/24 08:11:42;;;;;;;15.20;14.00;;;15.30;99.90;;;;;;4981810;28;20558;-64
2022/09/24 08:14:09;;;;;;;15.83;14.50;;;15.30;99.90;;;;;;4982186;28;20486;-64
2022/09/24 08:16:38;;;;;;;15.57;14.07;;;15.40;99.90;;;;;;4977750;28;20450;-64
2022/09/24 08:19:05;;;;;;;15.80;14.37;;;15.50;99.90;;;;;;4976310;28;20478;-65
2022/09/24 08:21:32;;;;;;;16.97;15.43;;;15.60;99.90;;;;;;4975844;28;20474;-65
2022/09/24 08:23:59;;;;;;;14.73;13.60;;;15.60;99.90;;;;;;4975992;28;20494;-65
2022/09/24 08:26:26;;;;;;;14.50;13.33;;;15.70;99.90;;;;;;4975279;28;20491;-65
2022/09/24 08:28:53;;;;;;;15.40;13.80;;;15.70;99.90;;;;;;4975914;28;20461;-65
2022/09/24 08:31:19;;;;;;;15.13;14.03;;;15.60;99.90;;;;;;4975529;28;20537;-64
2022/09/24 08:33:49;;;;;;;14.17;12.87;;;15.70;99.90;;;;;;4979064;28;20533;-65
2022/09/24 08:36:17;;;;;;;14.70;13.30;;;15.80;99.90;;;;;;4979423;28;20934;-64
2022/09/24 08:38:43;;;;;;;14.60;13.30;;;16.00;99.90;;;;;;4979747;28;20475;-64
2022/09/24 08:41:31;;;;;;;15.20;13.90;;;16.10;99.90;;;;;;4979278;28;20475;-65
2022/09/24 08:44:03;;;;;;;15.23;13.93;;;16.30;99.90;;;;;;4980402;28;20439;-65
2022/09/24 08:49:23;;;;;;;15.30;13.80;;;16.50;99.90;;;;;;4978809;28;20427;-65
2022/09/24 08:52:00;;;;;;;14.73;13.53;;;16.60;99.90;;;;;;4978526;28;20478;-65
2022/09/24 08:54:29;;;;;;;14.93;13.73;;;16.80;99.90;;;;;;4978589;28;20473;-64
2022/09/24 08:56:56;;;;;;;14.63;13.23;;;17.10;99.90;;;;;;4978601;28;20458;-64
2022/09/24 08:59:29;;;;;;;13.70;12.37;;;17.40;99.90;;;;;;4979006;28;20474;-65
2022/09/24 09:02:12;;;;;;;15.87;13.23;;;17.80;99.90;;;;;;4978141;28;20486;-65
2022/09/24 09:04:53;;;;;;;14.30;12.80;;;18.30;99.90;;;;;;4978500;28;20447;-64
2022/09/24 09:07:23;;;;;;;15.40;13.10;;;18.70;99.90;;;;;;4978905;28;20443;-63
2022/09/24 09:09:55;;;;;;;13.90;12.60;;;18.80;99.90;;;;;;4978139;28;20457;-64
2022/09/24 09:12:27;;;;;;;14.17;12.87;;;19.00;99.90;;;;;;4978400;28;20506;-65
2022/09/24 09:15:01;;;;;;;13.43;12.33;;;19.30;99.90;;;;;;4978936;28;20447;-64
2022/09/24 09:17:36;;;;;;;11.33;10.33;;;19.90;99.90;;;;;;4978427;28;20439;-65
2022/09/24 09:20:11;;;;;;;15.40;13.83;;;20.50;99.90;;;;;;4977934;28;20996;-64
2022/09/24 09:22:42;;;;;;;18.73;10.27;;;21.10;99.90;;;;;;4978114;28;20481;-65
2022/09/24 09:25:18;;;;;;;11.20;10.20;;;22.10;99.90;;;;;;4978220;28;20446;-64
2022/09/24 09:27:47;;;;;;;10.37;9.53;;;23.20;99.90;;;;;;4978125;28;20846;-65
2022/09/24 09:30:18;;;;;;;12.27;10.37;;;24.50;99.90;;;;;;4977623;28;20446;-65
2022/09/24 09:32:59;;;;;;;10.10;9.20;;;25.10;98.10;;;;;;4977929;28;20911;-65
2022/09/24 09:35:35;;;;;;;12.37;11.37;;;25.40;94.60;;;;;;4978229;28;20579;-66
2022/09/24 09:38:09;;;;;;;11.33;10.50;;;25.30;93.30;;;;;;4977911;28;20443;-65
2022/09/24 09:40:41;;;;;;;11.67;10.87;;;24.60;93.30;;;;;;4977765;28;20541;-65
2022/09/24 09:43:10;;;;;;;12.00;10.90;;;24.20;94.60;;;;;;4977733;28;20439;-65
2022/09/24 09:45:43;;;;;;;10.87;10.07;;;23.60;95.00;;;;;;4977820;28;20513;-65
2022/09/24 09:48:12;;;;;;;12.43;11.17;;;23.50;95.80;;;;;;4978084;28;20454;-64
2022/09/24 09:50:44;;;;;;;13.60;11.97;;;23.30;96.20;;;;;;4978174;28;20570;-64
2022/09/24 09:53:20;;;;;;;12.77;11.77;;;22.90;96.50;;;;;;4978093;28;20842;-64
2022/09/24 09:55:53;;;;;;;10.93;10.10;;;22.60;97.00;;;;;;4977978;28;20505;-65
2022/09/24 09:58:23;;;;;;;11.70;10.80;;;22.20;97.90;;;;;;4977572;28;20563;-65
2022/09/24 10:00:50;;;;;;;12.00;11.00;;;21.90;98.50;;;;;;4977136;28;21036;-65
2022/09/24 10:03:25;;;;;;;11.77;10.43;;;21.60;99.50;;;;;;4978343;28;20446;-64
2022/09/24 10:05:55;;;;;;;10.93;9.93;;;21.40;99.90;;;;;;4977867;28;20457;-65
2022/09/24 10:08:23;;;;;;;10.20;9.30;;;21.20;99.90;;;;;;4977860;28;20450;-65
2022/09/24 10:10:55;;;;;;;10.70;9.90;;;20.90;99.90;;;;;;4978796;28;20872;-64
2022/09/24 10:13:22;;;;;;;11.30;10.30;;;20.60;99.90;;;;;;4978907;28;20490;-64
2022/09/24 10:15:50;;;;;;;11.57;9.70;;;20.40;99.90;;;;;;4977451;28;20462;-65
2022/09/24 10:18:18;;;;;;;11.63;10.40;;;20.30;99.90;;;;;;4977298;28;20459;-66
2022/09/24 10:20:48;;;;;;;11.43;10.53;;;20.30;99.90;;;;;;4977053;28;20490;-64
2022/09/24 10:23:20;;;;;;;12.70;10.13;;;20.20;99.90;;;;;;4977109;28;20964;-65
2022/09/24 10:25:52;;;;;;;10.00;9.20;;;20.00;99.90;;;;;;4977116;28;20529;-65
2022/09/24 10:31:11;;;;;;;8.60;7.87;;;19.90;99.90;;;;;;4976876;28;20578;-65
2022/09/24 10:33:39;;;;;;;8.93;7.90;;;19.80;99.90;;;;;;4977100;28;20439;-65
2022/09/24 10:36:13;;;;;;;9.33;8.53;;;19.70;99.90;;;;;;4977178;28;20478;-64
2022/09/24 10:38:42;;;;;;;9.33;8.53;;;19.70;99.90;;;;;;4977346;28;20439;-65
2022/09/24 10:41:26;;;;;;;8.90;8.10;;;19.60;99.90;;;;;;4977030;28;20973;-66
2022/09/24 10:43:54;;;;;;;8.90;8.00;;;19.50;99.90;;;;;;4976829;28;20477;-65
2022/09/24 10:46:55;;;;;;;8.90;8.20;;;19.40;99.90;;;;;;4976664;28;20459;-65
2022/09/24 10:49:34;;;;;;;8.17;7.37;;;19.30;99.90;;;;;;4976241;28;21046;-65
2022/09/24 10:52:09;;;;;;;8.33;7.53;;;19.20;99.90;;;;;;4976512;28;20478;-64
2022/09/24 10:54:53;;;;;;;7.50;6.90;;;19.00;99.90;;;;;;4976306;28;20534;-65
2022/09/24 10:57:26;;;;;;;7.47;6.87;;;18.80;99.90;;;;;;4976747;28;20443;-64
2022/09/24 11:00:02;;;;;;;6.50;5.93;;;18.70;99.90;;;;;;4976598;28;20471;-65
2022/09/24 11:03:00;;;;;;;7.30;6.80;;;18.60;99.90;;;;;;4976076;28;20541;-64
2022/09/24 11:05:33;;;;;;;6.77;6.37;;;18.60;99.90;;;;;;4976750;28;20443;-65
2022/09/24 11:08:16;;;;;;;5.80;5.40;;;18.70;99.90;;;;;;4976444;28;20493;-64
2022/09/24 11:11:04;;;;;;;5.80;5.40;;;19.00;99.90;;;;;;4976268;28;20477;-65
2022/09/24 11:13:39;;;;;;;6.93;6.37;;;19.40;99.90;;;;;;4982347;28;20503;-65
2022/09/24 11:16:43;;;;;;;6.30;5.70;;;19.90;99.90;;;;;;4985525;28;20438;-65
2022/09/24 11:19:24;;;;;;;7.20;6.57;;;20.50;99.90;;;;;;4979654;28;20463;-65
2022/09/24 11:22:07;;;;;;;7.87;7.20;;;20.90;99.90;;;;;;4978943;28;20582;-65
2022/09/24 11:24:47;;;;;;;6.20;5.60;;;21.30;99.90;;;;;;4978376;28;20490;-66
2022/09/24 11:27:33;;;;;;;5.90;5.47;;;21.50;99.90;;;;;;4978018;28;20445;-66
2022/09/24 11:30:09;;;;;;;7.90;6.90;;;21.50;99.90;;;;;;4977749;28;20466;-65
2022/09/24 11:32:44;;;;;;;5.90;5.40;;;21.40;99.90;;;;;;4977332;28;20481;-65
2022/09/24 11:35:30;;;;;;;6.27;5.87;;;21.50;99.90;;;;;;4986445;28;20439;-65
2022/09/24 11:38:00;;;;;;;5.23;4.83;;;21.40;99.90;;;;;;4997326;28;20433;-65
2022/09/24 11:40:47;;;;;;;5.97;5.50;;;21.30;99.90;;;;;;4997307;28;20502;-65
2022/09/24 11:43:32;;;;;;;5.53;5.13;;;21.20;99.90;;;;;;4988995;28;20443;-65
2022/09/24 11:46:15;;;;;;;5.77;5.27;;;20.80;99.90;;;;;;4978236;28;20438;-65
2022/09/24 11:48:55;;;;;;;4.80;4.43;;;20.50;99.90;;;;;;4977371;28;20438;-64
2022/09/24 11:51:32;;;;;;;4.17;3.80;;;20.30;99.90;;;;;;4984633;28;20482;-65
2022/09/24 11:54:07;;;;;;;7.10;5.10;;;20.20;99.90;;;;;;4992238;28;20448;-65
2022/09/24 11:56:38;;;;;;;5.80;5.30;;;20.00;99.90;;;;;;4990394;28;20438;-65
2022/09/24 11:59:15;;;;;;;6.10;5.60;;;20.00;99.90;;;;;;4987572;28;20441;-65
2022/09/24 12:01:49;;;;;;;6.87;6.30;;;19.90;99.90;;;;;;4978519;28;20486;-64
2022/09/24 12:04:21;;;;;;;9.33;8.43;;;19.80;99.90;;;;;;4977084;28;20442;-66
2022/09/24 12:06:54;;;;;;;11.50;10.20;;;19.70;99.90;;;;;;4976256;28;20458;-65
2022/09/24 12:09:25;;;;;;;9.53;8.63;;;19.60;99.90;;;;;;4980519;28;20494;-66
2022/09/24 12:11:57;;;;;;;6.10;5.70;;;19.50;99.90;;;;;;4981681;28;20484;-66
2022/09/24 12:14:29;;;;;;;4.87;4.47;;;19.40;99.90;;;;;;4986737;28;20442;-66
2022/09/24 12:17:01;;;;;;;9.23;8.33;;;19.30;99.90;;;;;;4984937;28;20522;-65
2022/09/24 12:19:34;;;;;;;8.83;7.83;;;19.30;99.90;;;;;;4981779;28;20537;-65
2022/09/24 12:22:03;;;;;;;4.53;4.20;;;19.30;99.90;;;;;;4979675;28;20479;-64
2022/09/24 12:24:35;;;;;;;6.63;6.10;;;19.20;99.90;;;;;;4979438;28;20529;-63
2022/09/24 12:27:10;;;;;;;4.53;3.50;;;19.20;99.90;;;;;;4979434;28;20526;-63
2022/09/24 12:32:56;;;;;;;6.60;6.00;;;18.90;99.90;;;;;;4979320;28;20598;-63
2022/09/24 12:35:33;;;;;;;3.80;3.50;;;18.80;99.90;;;;;;4979094;28;20840;-64
2022/09/24 12:38:05;;;;;;;4.97;4.57;;;18.70;99.90;;;;;;4978815;28;20438;-63
2022/09/24 12:41:05;;;;;;;6.30;5.70;;;18.60;99.90;;;;;;4978991;28;20471;-64
2022/09/24 12:43:39;;;;;;;6.10;5.40;;;18.50;99.90;;;;;;4978770;28;20438;-63
2022/09/24 12:46:14;;;;;;;10.13;4.47;;;18.50;99.90;;;;;;4978836;28;20438;-63
2022/09/24 12:48:44;;;;;;;6.47;5.70;;;18.50;99.90;;;;;;4978930;28;20438;-63
2022/09/24 12:51:13;;;;;;;5.80;5.40;;;18.40;99.90;;;;;;4978221;28;20978;-63
2022/09/24 12:53:42;;;;;;;5.10;4.63;;;18.30;99.90;;;;;;4978442;28;20957;-63
2022/09/24 12:56:11;;;;;;;7.70;5.70;;;18.10;99.90;;;;;;4978775;28;20461;-63
2022/09/24 12:58:39;;;;;;;7.27;6.57;;;18.00;99.90;;;;;;4978825;28;20462;-63
2022/09/24 13:01:14;;;;;;;7.70;7.10;;;17.90;99.90;;;;;;4978376;28;20981;-64
2022/09/24 13:03:42;;;;;;;9.50;8.60;;;17.80;99.90;;;;;;4979409;28;20439;-64
2022/09/24 13:06:29;;;;;;;12.37;10.43;;;17.70;99.90;;;;;;4978976;28;20458;-64
2022/09/24 13:08:56;;;;;;;13.10;11.90;;;17.50;99.90;;;;;;4985024;28;20489;-63
2022/09/24 13:11:32;;;;;;;15.20;13.80;;;17.30;99.90;;;;;;4985097;28;20478;-63
2022/09/24 13:14:02;;;;;;;16.90;15.50;;;17.20;99.90;;;;;;4986022;28;20449;-62
2022/09/24 13:16:31;;;;;;;19.60;17.90;;;17.10;99.90;;;;;;4985868;28;20439;-62
2022/09/24 13:19:01;;;;;;;18.47;16.57;;;17.10;99.90;;;;;;4979265;28;20455;-63
2022/09/24 13:21:30;;;;;;;16.60;15.10;;;17.00;99.90;;;;;;4978266;28;21017;-63
2022/09/24 13:23:57;;;;;;;19.50;17.83;;;16.90;99.90;;;;;;4979358;28;20461;-63
2022/09/24 13:26:32;;;;;;;17.40;15.80;;;16.90;99.90;;;;;;4978718;28;20455;-62
2022/09/24 13:29:00;;;;;;;18.40;16.80;;;17.00;99.90;;;;;;4978345;28;20442;-63
2022/09/24 13:31:37;;;;;;;18.60;17.20;;;17.10;99.90;;;;;;4978411;28;20474;-63
2022/09/24 13:34:13;;;;;;;18.03;16.43;;;17.10;99.90;;;;;;4978024;28;20450;-63
2022/09/24 13:36:45;;;;;;;19.00;17.50;;;17.10;99.90;;;;;;4978311;28;20502;-63
2022/09/24 13:39:16;;;;;;;18.67;17.07;;;17.10;99.90;;;;;;4978229;28;20451;-63
2022/09/24 13:41:50;;;;;;;16.80;15.30;;;17.10;99.90;;;;;;4977885;28;20487;-63
2022/09/24 13:44:22;;;;;;;20.83;18.73;;;17.10;99.90;;;;;;4977757;28;20446;-62
2022/09/24 13:46:59;;;;;;;21.10;19.20;;;17.10;99.90;;;;;;4977979;28;20447;-63
2022/09/24 13:49:29;;;;;;;18.13;16.63;;;17.10;99.90;;;;;;4977713;28;20438;-63
2022/09/24 13:52:09;;;;;;;15.70;14.40;;;17.00;99.90;;;;;;4977646;28;20557;-63
2022/09/24 13:54:43;;;;;;;16.87;15.33;;;17.10;99.90;;;;;;4978384;28;20899;-63
2022/09/24 13:57:13;;;;;;;13.30;12.20;;;17.10;99.90;;;;;;4977441;28;20502;-63
2022/09/24 13:59:40;;;;;;;12.90;11.70;;;17.10;99.90;;;;;;4977206;28;20910;-63
2022/09/24 14:02:24;;;;;;;11.23;10.27;;;17.10;99.90;;;;;;4977283;28;20486;-63
2022/09/24 14:04:54;;;;;;;9.70;8.97;;;17.10;99.90;;;;;;4977873;28;20443;-63
2022/09/24 14:07:22;;;;;;;9.33;8.47;;;17.00;99.90;;;;;;4978556;28;20447;-63
2022/09/24 14:09:50;;;;;;;8.97;8.30;;;16.90;99.90;;;;;;4977501;28;20478;-63
2022/09/24 14:12:20;;;;;;;9.53;8.60;;;16.90;99.90;;;;;;4983189;28;20550;-63
2022/09/24 14:14:53;;;;;;;10.50;9.50;;;16.80;99.90;;;;;;4985964;28;20486;-63
2022/09/24 14:17:21;;;;;;;8.87;8.07;;;16.80;99.90;;;;;;4981217;28;21006;-62
2022/09/24 14:19:53;;;;;;;8.90;8.30;;;16.80;99.90;;;;;;4979069;28;20445;-62
2022/09/24 14:22:22;;;;;;;9.70;8.90;;;16.80;99.90;;;;;;4977995;28;20541;-62
2022/09/24 14:24:55;;;;;;;9.70;8.80;;;16.90;99.90;;;;;;4978038;28;20506;-63
2022/09/24 14:27:23;;;;;;;8.97;8.17;;;17.00;99.90;;;;;;4978081;28;20443;-63
2022/09/24 14:29:54;;;;;;;8.10;7.47;;;17.10;99.90;;;;;;4976798;28;20458;-62
2022/09/24 14:32:26;;;;;;;8.40;7.90;;;17.20;99.90;;;;;;4977954;28;20474;-62
2022/09/24 14:34:55;;;;;;;9.17;8.30;;;17.30;99.90;;;;;;4977748;28;20497;-62
2022/09/24 14:37:26;;;;;;;8.67;7.87;;;17.40;99.90;;;;;;4978138;28;20455;-62
2022/09/24 14:40:00;;;;;;;8.97;8.37;;;17.40;99.90;;;;;;4977425;28;20439;-62
2022/09/24 14:42:31;;;;;;;8.90;8.10;;;17.40;99.90;;;;;;4976973;28;20528;-62
2022/09/24 14:44:59;;;;;;;9.97;9.17;;;17.30;99.90;;;;;;4977116;28;20494;-62
2022/09/24 14:47:29;;;;;;;8.70;8.10;;;17.40;99.90;;;;;;4976794;28;20455;-62
2022/09/24 14:49:56;;;;;;;9.90;9.10;;;17.40;99.90;;;;;;4976922;28;20846;-63
2022/09/24 14:52:29;;;;;;;10.40;9.60;;;17.40;99.90;;;;;;4976895;28;20474;-63
2022/09/24 14:55:17;;;;;;;10.10;9.30;;;17.40;99.90;;;;;;4976913;28;20449;-62
2022/09/24 14:57:45;;;;;;;9.27;8.67;;;17.30;99.90;;;;;;4976929;28;20513;-62
2022/09/24 15:00:23;;;;;;;10.43;9.70;;;17.40;99.90;;;;;;4976878;28;20446;-62
2022/09/24 15:02:57;;;;;;;10.70;9.90;;;17.40;99.90;;;;;;4977052;28;20439;-62
2022/09/24 15:05:25;;;;;;;11.03;10.23;;;17.40;99.90;;;;;;4976350;28;20448;-62
2022/09/24 15:07:54;;;;;;;10.90;9.90;;;17.40;99.90;;;;;;4976710;28;20451;-63
2022/09/24 15:10:22;;;;;;;9.80;9.10;;;17.50;99.90;;;;;;4975923;28;20486;-62
2022/09/24 15:12:51;;;;;;;10.43;9.60;;;17.50;99.90;;;;;;4976168;28;20546;-62
2022/09/24 15:15:30;;;;;;;11.80;10.60;;;17.50;99.90;;;;;;4976328;28;20454;-62
2022/09/24 15:17:58;;;;;;;10.23;9.27;;;17.50;99.90;;;;;;4975939;28;20945;-62
2022/09/24 15:20:26;;;;;;;10.27;9.47;;;17.50;99.90;;;;;;4976140;28;20551;-63
2022/09/24 15:22:53;;;;;;;10.50;9.70;;;17.50;99.90;;;;;;4975746;28;20856;-63
2022/09/24 15:25:19;;;;;;;10.03;9.13;;;17.50;99.90;;;;;;4975835;28;20910;-63
2022/09/24 15:27:48;;;;;;;10.10;9.13;;;17.40;99.90;;;;;;4976042;28;20513;-63
2022/09/24 15:30:19;;;;;;;9.50;8.70;;;17.40;99.90;;;;;;4976391;28;20482;-63
2022/09/24 15:32:46;;;;;;;9.07;8.37;;;17.40;99.90;;;;;;4976102;28;20914;-63
2022/09/24 15:35:15;;;;;;;8.70;8.10;;;17.40;99.90;;;;;;4976324;28;20490;-63
2022/09/24 15:37:43;;;;;;;8.30;7.60;;;17.40;99.90;;;;;;4975599;28;20902;-62
2022/09/24 15:40:19;;;;;;;8.10;7.50;;;17.50;99.90;;;;;;4975846;28;20454;-62
2022/09/24 15:42:46;;;;;;;7.27;6.63;;;17.60;99.90;;;;;;4975763;28;20435;-62
2022/09/24 15:45:17;;;;;;;7.10;6.53;;;17.60;99.90;;;;;;4975982;28;20461;-63
2022/09/24 15:47:43;;;;;;;7.33;6.73;;;17.60;99.90;;;;;;4975992;28;20439;-62
2022/09/24 15:50:11;;;;;;;7.30;6.80;;;17.70;99.90;;;;;;4976575;28;20459;-62
2022/09/24 15:52:44;;;;;;;6.90;6.30;;;17.70;99.90;;;;;;4976292;28;20545;-62
2022/09/24 15:55:15;;;;;;;6.97;6.47;;;17.60;99.90;;;;;;4976188;28;20447;-63
2022/09/24 15:57:42;;;;;;;6.97;6.37;;;17.50;99.90;;;;;;4976329;28;20455;-62
2022/09/24 16:00:13;;;;;;;7.03;6.33;;;17.50;99.90;;;;;;4975821;28;20454;-62
2022/09/24 16:02:43;;;;;;;6.87;6.27;;;17.50;99.90;;;;;;4975486;28;20537;-62
2022/09/24 16:05:11;;;;;;;6.60;6.10;;;17.50;99.90;;;;;;4975845;28;20474;-63
2022/09/24 16:07:39;;;;;;;6.93;6.30;;;17.60;99.90;;;;;;4975746;28;20938;-63
2022/09/24 16:10:07;;;;;;;7.73;7.03;;;17.60;99.90;;;;;;4976218;28;20513;-62
2022/09/24 16:12:34;;;;;;;8.93;8.17;;;17.60;99.90;;;;;;4975875;28;20471;-62
2022/09/24 16:15:00;;;;;;;11.37;8.53;;;17.60;99.90;;;;;;4975786;28;20461;-62
2022/09/24 16:17:28;;;;;;;7.33;6.80;;;17.60;99.90;;;;;;4975853;28;20454;-62
2022/09/24 16:19:55;;;;;;;8.50;7.70;;;17.50;99.90;;;;;;4975249;28;20525;-62
2022/09/24 16:22:21;;;;;;;8.20;7.60;;;17.40;99.90;;;;;;4975285;28;20978;-63
2022/09/24 16:24:49;;;;;;;9.23;8.50;;;17.40;99.90;;;;;;4975561;28;20459;-63
2022/09/24 16:27:16;;;;;;;9.67;8.87;;;17.30;99.90;;;;;;4975553;28;20513;-62
2022/09/24 16:29:43;;;;;;;9.47;8.67;;;17.20;99.90;;;;;;4980993;28;20462;-62
2022/09/24 16:32:10;;;;;;;9.00;8.30;;;17.20;99.90;;;;;;4980179;28;20526;-63
2022/09/24 16:34:36;;;;;;;8.37;7.63;;;17.20;99.90;;;;;;4977395;28;20951;-63
2022/09/24 16:37:03;;;;;;;8.50;7.70;;;17.10;99.90;;;;;;4975779;28;20458;-63
2022/09/24 16:39:30;;;;;;;9.63;8.93;;;17.10;99.90;;;;;;4976884;28;20510;-63
2022/09/24 16:41:58;;;;;;;9.40;8.77;;;17.10;99.90;;;;;;4975716;28;20514;-63
2022/09/24 16:44:24;;;;;;;10.67;9.87;;;17.00;99.90;;;;;;4975497;28;20807;-63
2022/09/24 16:46:51;;;;;;;11.33;10.33;;;17.00;99.90;;;;;;4975136;28;20481;-63
2022/09/24 16:49:18;;;;;;;10.87;9.97;;;16.90;99.90;;;;;;4979939;28;20486;-63
2022/09/24 16:51:45;;;;;;;11.67;10.60;;;16.90;99.90;;;;;;4997336;28;20547;-63
2022/09/24 16:54:12;;;;;;;10.93;10.03;;;16.80;99.90;;;;;;4998636;28;20446;-63
2022/09/24 16:56:39;;;;;;;12.73;11.53;;;16.80;99.90;;;;;;4999075;28;20478;-63
2022/09/24 16:59:07;;;;;;;12.57;11.30;;;16.70;99.90;;;;;;4981024;28;20830;-63
2022/09/24 17:01:33;;;;;;;14.03;12.73;;;16.70;99.90;;;;;;4979040;28;20490;-63